sensor_id;sensor_type;location;lat;lon;timestamp;P1;durP1;ratioP1;P2;durP2;ratioP2
23596;SDS011;40226;50.874;4.394;2022-07-12T00:01:17;6.55;;;4.60;;
23596;SDS011;40226;50.874;4.394;2022-07-12T00:03:43;8.20;;;4.57;;
23596;SDS011;40226;50.874;4.394;2022-07-12T00:06:09;7.32;;;4.50;;
23596;SDS011;40226;50.874;4.394;2022-07-12T00:08:35;5.60;;;4.95;;
23596;SDS011;40226;50.874;4.394;2022-07-12T00:11:01;5.90;;;4.55;;
23596;SDS011;40226;50.874;4.394;2022-07-12T00:13:26;6.57;;;4.57;;
23596;SDS011;40226;50.874;4.394;2022-07-12T00:15:52;7.35;;;5.13;;
23596;SDS011;40226;50.874;4.394;2022-07-12T00:18:17;6.50;;;5.07;;
23596;SDS011;40226;50.874;4.394;2022-07-12T00:20:43;5.78;;;4.65;;
23596;SDS011;40226;50.874;4.394;2022-07-12T00:23:09;8.27;;;5.30;;
23596;SDS011;40226;50.874;4.394;2022-07-12T00:25:34;5.82;;;4.95;;
23596;SDS011;40226;50.874;4.394;2022-07-12T00:28:00;7.20;;;4.82;;
23596;SDS011;40226;50.874;4.394;2022-07-12T00:30:26;10.60;;;5.30;;
23596;SDS011;40226;50.874;4.394;2022-07-12T00:32:51;8.07;;;4.57;;
23596;SDS011;40226;50.874;4.394;2022-07-12T00:35:18;6.85;;;5.70;;
23596;SDS011;40226;50.874;4.394;2022-07-12T00:37:43;5.78;;;5.28;;
23596;SDS011;40226;50.874;4.394;2022-07-12T00:40:09;6.15;;;5.00;;
23596;SDS011;40226;50.874;4.394;2022-07-12T00:42:36;7.18;;;5.28;;
23596;SDS011;40226;50.874;4.394;2022-07-12T00:45:03;5.57;;;5.05;;
23596;SDS011;40226;50.874;4.394;2022-07-12T00:47:34;5.80;;;5.28;;
23596;SDS011;40226;50.874;4.394;2022-07-12T00:50:09;9.60;;;5.35;;
23596;SDS011;40226;50.874;4.394;2022-07-12T00:52:37;7.00;;;5.43;;
23596;SDS011;40226;50.874;4.394;2022-07-12T00:55:04;6.30;;;4.82;;
23596;SDS011;40226;50.874;4.394;2022-07-12T00:57:31;7.70;;;5.80;;
23596;SDS011;40226;50.874;4.394;2022-07-12T00:59:58;6.78;;;6.07;;
23596;SDS011;40226;50.874;4.394;2022-07-12T01:02:23;9.63;;;5.78;;
23596;SDS011;40226;50.874;4.394;2022-07-12T01:04:50;7.00;;;5.60;;
23596;SDS011;40226;50.874;4.394;2022-07-12T01:07:16;7.60;;;5.30;;
23596;SDS011;40226;50.874;4.394;2022-07-12T01:09:42;7.28;;;5.70;;
23596;SDS011;40226;50.874;4.394;2022-07-12T01:12:08;7.72;;;5.70;;
23596;SDS011;40226;50.874;4.394;2022-07-12T01:14:35;7.13;;;5.80;;
23596;SDS011;40226;50.874;4.394;2022-07-12T01:17:01;6.65;;;5.90;;
23596;SDS011;40226;50.874;4.394;2022-07-12T01:19:27;6.22;;;5.13;;
23596;SDS011;40226;50.874;4.394;2022-07-12T01:21:54;8.40;;;5.20;;
23596;SDS011;40226;50.874;4.394;2022-07-12T01:24:22;7.22;;;5.35;;
23596;SDS011;40226;50.874;4.394;2022-07-12T01:26:49;6.40;;;5.25;;
23596;SDS011;40226;50.874;4.394;2022-07-12T01:29:16;6.88;;;5.07;;
23596;SDS011;40226;50.874;4.394;2022-07-12T01:31:41;8.63;;;5.70;;
23596;SDS011;40226;50.874;4.394;2022-07-12T01:34:09;7.07;;;5.55;;
23596;SDS011;40226;50.874;4.394;2022-07-12T01:36:35;8.02;;;6.22;;
23596;SDS011;40226;50.874;4.394;2022-07-12T01:39:03;7.32;;;5.47;;
23596;SDS011;40226;50.874;4.394;2022-07-12T01:41:29;9.27;;;5.68;;
23596;SDS011;40226;50.874;4.394;2022-07-12T01:43:57;8.35;;;6.05;;
23596;SDS011;40226;50.874;4.394;2022-07-12T01:46:24;9.50;;;5.88;;
23596;SDS011;40226;50.874;4.394;2022-07-12T01:48:49;6.72;;;5.50;;
23596;SDS011;40226;50.874;4.394;2022-07-12T01:51:15;8.10;;;6.28;;
23596;SDS011;40226;50.874;4.394;2022-07-12T01:53:41;8.93;;;5.75;;
23596;SDS011;40226;50.874;4.394;2022-07-12T01:56:07;11.30;;;5.95;;
23596;SDS011;40226;50.874;4.394;2022-07-12T01:58:34;7.78;;;6.13;;
23596;SDS011;40226;50.874;4.394;2022-07-12T02:01:00;7.43;;;5.88;;
23596;SDS011;40226;50.874;4.394;2022-07-12T02:03:25;7.57;;;6.03;;
23596;SDS011;40226;50.874;4.394;2022-07-12T02:05:51;7.18;;;5.80;;
23596;SDS011;40226;50.874;4.394;2022-07-12T02:08:17;7.28;;;6.20;;
23596;SDS011;40226;50.874;4.394;2022-07-12T02:10:43;7.75;;;6.25;;
23596;SDS011;40226;50.874;4.394;2022-07-12T02:13:08;7.70;;;5.70;;
23596;SDS011;40226;50.874;4.394;2022-07-12T02:15:35;7.57;;;5.68;;
23596;SDS011;40226;50.874;4.394;2022-07-12T02:18:01;6.47;;;5.72;;
23596;SDS011;40226;50.874;4.394;2022-07-12T02:20:27;7.43;;;6.10;;
23596;SDS011;40226;50.874;4.394;2022-07-12T02:22:53;7.47;;;6.18;;
23596;SDS011;40226;50.874;4.394;2022-07-12T02:25:19;8.73;;;6.05;;
23596;SDS011;40226;50.874;4.394;2022-07-12T02:27:44;7.13;;;6.10;;
23596;SDS011;40226;50.874;4.394;2022-07-12T02:30:10;8.20;;;6.18;;
23596;SDS011;40226;50.874;4.394;2022-07-12T02:32:37;7.43;;;5.70;;
23596;SDS011;40226;50.874;4.394;2022-07-12T02:35:03;9.50;;;5.97;;
23596;SDS011;40226;50.874;4.394;2022-07-12T02:37:30;8.65;;;6.40;;
23596;SDS011;40226;50.874;4.394;2022-07-12T02:39:55;7.32;;;5.85;;
23596;SDS011;40226;50.874;4.394;2022-07-12T02:42:41;8.50;;;5.50;;
23596;SDS011;40226;50.874;4.394;2022-07-12T02:45:08;6.68;;;5.93;;
23596;SDS011;40226;50.874;4.394;2022-07-12T02:47:38;6.72;;;6.03;;
23596;SDS011;40226;50.874;4.394;2022-07-12T02:50:04;8.43;;;6.13;;
23596;SDS011;40226;50.874;4.394;2022-07-12T02:52:31;7.28;;;6.40;;
23596;SDS011;40226;50.874;4.394;2022-07-12T02:54:57;9.65;;;6.18;;
23596;SDS011;40226;50.874;4.394;2022-07-12T02:57:23;8.18;;;6.45;;
23596;SDS011;40226;50.874;4.394;2022-07-12T02:59:48;7.65;;;5.93;;
23596;SDS011;40226;50.874;4.394;2022-07-12T03:02:15;10.15;;;6.47;;
23596;SDS011;40226;50.874;4.394;2022-07-12T03:04:40;8.27;;;6.60;;
23596;SDS011;40226;50.874;4.394;2022-07-12T03:07:06;7.32;;;6.28;;
23596;SDS011;40226;50.874;4.394;2022-07-12T03:09:31;7.13;;;6.07;;
23596;SDS011;40226;50.874;4.394;2022-07-12T03:11:57;8.85;;;6.95;;
23596;SDS011;40226;50.874;4.394;2022-07-12T03:14:22;9.23;;;6.60;;
23596;SDS011;40226;50.874;4.394;2022-07-12T03:16:48;10.52;;;6.70;;
23596;SDS011;40226;50.874;4.394;2022-07-12T03:19:14;8.35;;;6.93;;
23596;SDS011;40226;50.874;4.394;2022-07-12T03:21:40;10.68;;;7.20;;
23596;SDS011;40226;50.874;4.394;2022-07-12T03:24:06;12.73;;;9.13;;
23596;SDS011;40226;50.874;4.394;2022-07-12T03:26:31;9.55;;;7.40;;
23596;SDS011;40226;50.874;4.394;2022-07-12T03:28:57;10.50;;;7.22;;
23596;SDS011;40226;50.874;4.394;2022-07-12T03:31:25;8.35;;;7.25;;
23596;SDS011;40226;50.874;4.394;2022-07-12T03:33:51;11.05;;;7.35;;
23596;SDS011;40226;50.874;4.394;2022-07-12T03:36:17;8.27;;;7.00;;
23596;SDS011;40226;50.874;4.394;2022-07-12T03:38:43;9.25;;;6.95;;
23596;SDS011;40226;50.874;4.394;2022-07-12T03:41:09;10.18;;;7.60;;
23596;SDS011;40226;50.874;4.394;2022-07-12T03:43:35;13.63;;;8.40;;
23596;SDS011;40226;50.874;4.394;2022-07-12T03:46:00;9.88;;;7.40;;
23596;SDS011;40226;50.874;4.394;2022-07-12T03:48:26;11.25;;;7.63;;
23596;SDS011;40226;50.874;4.394;2022-07-12T03:50:51;10.07;;;7.93;;
23596;SDS011;40226;50.874;4.394;2022-07-12T03:53:17;8.10;;;7.07;;
23596;SDS011;40226;50.874;4.394;2022-07-12T03:55:43;11.18;;;7.93;;
23596;SDS011;40226;50.874;4.394;2022-07-12T03:58:09;10.48;;;7.07;;
23596;SDS011;40226;50.874;4.394;2022-07-12T04:00:35;8.65;;;7.45;;
23596;SDS011;40226;50.874;4.394;2022-07-12T04:03:00;8.73;;;7.43;;
23596;SDS011;40226;50.874;4.394;2022-07-12T04:05:26;10.65;;;7.88;;
23596;SDS011;40226;50.874;4.394;2022-07-12T04:07:52;9.30;;;8.15;;
23596;SDS011;40226;50.874;4.394;2022-07-12T04:10:18;16.38;;;8.63;;
23596;SDS011;40226;50.874;4.394;2022-07-12T04:12:45;13.02;;;8.77;;
23596;SDS011;40226;50.874;4.394;2022-07-12T04:15:11;10.93;;;8.07;;
23596;SDS011;40226;50.874;4.394;2022-07-12T04:17:36;9.68;;;8.63;;
23596;SDS011;40226;50.874;4.394;2022-07-12T04:20:03;13.18;;;8.27;;
23596;SDS011;40226;50.874;4.394;2022-07-12T04:22:29;16.77;;;8.20;;
23596;SDS011;40226;50.874;4.394;2022-07-12T04:24:55;9.68;;;8.35;;
23596;SDS011;40226;50.874;4.394;2022-07-12T04:27:20;12.73;;;9.93;;
23596;SDS011;40226;50.874;4.394;2022-07-12T04:29:46;11.13;;;9.00;;
23596;SDS011;40226;50.874;4.394;2022-07-12T04:32:12;17.10;;;9.07;;
23596;SDS011;40226;50.874;4.394;2022-07-12T04:34:39;14.60;;;10.00;;
23596;SDS011;40226;50.874;4.394;2022-07-12T04:37:04;11.48;;;9.50;;
23596;SDS011;40226;50.874;4.394;2022-07-12T04:39:30;13.02;;;10.05;;
23596;SDS011;40226;50.874;4.394;2022-07-12T04:41:55;13.93;;;10.40;;
23596;SDS011;40226;50.874;4.394;2022-07-12T04:44:21;15.15;;;10.52;;
23596;SDS011;40226;50.874;4.394;2022-07-12T04:46:46;14.00;;;9.27;;
23596;SDS011;40226;50.874;4.394;2022-07-12T04:49:12;14.60;;;9.98;;
23596;SDS011;40226;50.874;4.394;2022-07-12T04:51:38;13.38;;;10.02;;
23596;SDS011;40226;50.874;4.394;2022-07-12T04:54:04;12.15;;;10.02;;
23596;SDS011;40226;50.874;4.394;2022-07-12T04:56:29;12.18;;;10.23;;
23596;SDS011;40226;50.874;4.394;2022-07-12T04:58:55;10.43;;;9.32;;
23596;SDS011;40226;50.874;4.394;2022-07-12T05:01:20;11.38;;;9.93;;
23596;SDS011;40226;50.874;4.394;2022-07-12T05:03:46;11.02;;;9.32;;
23596;SDS011;40226;50.874;4.394;2022-07-12T05:06:12;12.13;;;9.55;;
23596;SDS011;40226;50.874;4.394;2022-07-12T05:08:38;11.77;;;9.35;;
23596;SDS011;40226;50.874;4.394;2022-07-12T05:11:04;10.77;;;9.25;;
23596;SDS011;40226;50.874;4.394;2022-07-12T05:13:30;12.02;;;9.88;;
23596;SDS011;40226;50.874;4.394;2022-07-12T05:15:55;12.25;;;10.55;;
23596;SDS011;40226;50.874;4.394;2022-07-12T05:18:21;11.88;;;9.80;;
23596;SDS011;40226;50.874;4.394;2022-07-12T05:20:47;15.20;;;10.32;;
23596;SDS011;40226;50.874;4.394;2022-07-12T05:23:13;12.50;;;9.93;;
23596;SDS011;40226;50.874;4.394;2022-07-12T05:25:39;11.55;;;9.55;;
23596;SDS011;40226;50.874;4.394;2022-07-12T05:28:04;12.77;;;9.95;;
23596;SDS011;40226;50.874;4.394;2022-07-12T05:30:30;12.30;;;10.05;;
23596;SDS011;40226;50.874;4.394;2022-07-12T05:32:56;12.23;;;9.68;;
23596;SDS011;40226;50.874;4.394;2022-07-12T05:35:22;13.90;;;9.30;;
23596;SDS011;40226;50.874;4.394;2022-07-12T05:37:47;11.63;;;9.70;;
23596;SDS011;40226;50.874;4.394;2022-07-12T05:40:13;13.90;;;10.20;;
23596;SDS011;40226;50.874;4.394;2022-07-12T05:42:39;12.90;;;9.85;;
23596;SDS011;40226;50.874;4.394;2022-07-12T05:45:05;17.88;;;10.52;;
23596;SDS011;40226;50.874;4.394;2022-07-12T05:47:31;16.17;;;10.45;;
23596;SDS011;40226;50.874;4.394;2022-07-12T05:49:57;11.65;;;10.45;;
23596;SDS011;40226;50.874;4.394;2022-07-12T05:52:23;11.63;;;10.40;;
23596;SDS011;40226;50.874;4.394;2022-07-12T05:55:07;17.67;;;10.55;;
23596;SDS011;40226;50.874;4.394;2022-07-12T05:57:33;12.48;;;10.63;;
23596;SDS011;40226;50.874;4.394;2022-07-12T05:59:58;11.68;;;10.50;;
23596;SDS011;40226;50.874;4.394;2022-07-12T06:02:24;11.93;;;10.73;;
23596;SDS011;40226;50.874;4.394;2022-07-12T06:04:49;14.77;;;10.00;;
23596;SDS011;40226;50.874;4.394;2022-07-12T06:07:15;13.30;;;10.75;;
23596;SDS011;40226;50.874;4.394;2022-07-12T06:09:41;12.75;;;10.38;;
23596;SDS011;40226;50.874;4.394;2022-07-12T06:12:07;15.63;;;10.93;;
23596;SDS011;40226;50.874;4.394;2022-07-12T06:14:33;13.50;;;10.60;;
23596;SDS011;40226;50.874;4.394;2022-07-12T06:16:58;12.45;;;10.73;;
23596;SDS011;40226;50.874;4.394;2022-07-12T06:19:25;11.90;;;10.65;;
23596;SDS011;40226;50.874;4.394;2022-07-12T06:21:51;13.85;;;11.27;;
23596;SDS011;40226;50.874;4.394;2022-07-12T06:24:17;14.23;;;11.45;;
23596;SDS011;40226;50.874;4.394;2022-07-12T06:26:42;15.20;;;12.35;;
23596;SDS011;40226;50.874;4.394;2022-07-12T06:29:08;15.90;;;11.55;;
23596;SDS011;40226;50.874;4.394;2022-07-12T06:31:34;14.30;;;12.82;;
23596;SDS011;40226;50.874;4.394;2022-07-12T06:34:00;15.18;;;12.00;;
23596;SDS011;40226;50.874;4.394;2022-07-12T06:36:25;14.43;;;12.48;;
23596;SDS011;40226;50.874;4.394;2022-07-12T06:38:51;13.32;;;11.73;;
23596;SDS011;40226;50.874;4.394;2022-07-12T06:41:16;13.93;;;11.93;;
23596;SDS011;40226;50.874;4.394;2022-07-12T06:43:42;13.27;;;11.63;;
23596;SDS011;40226;50.874;4.394;2022-07-12T06:46:08;12.60;;;11.30;;
23596;SDS011;40226;50.874;4.394;2022-07-12T06:48:33;13.52;;;11.48;;
23596;SDS011;40226;50.874;4.394;2022-07-12T06:50:59;15.82;;;11.38;;
23596;SDS011;40226;50.874;4.394;2022-07-12T06:53:24;15.70;;;12.65;;
23596;SDS011;40226;50.874;4.394;2022-07-12T06:55:51;16.52;;;11.90;;
23596;SDS011;40226;50.874;4.394;2022-07-12T06:58:16;13.55;;;11.35;;
23596;SDS011;40226;50.874;4.394;2022-07-12T07:00:42;20.10;;;12.75;;
23596;SDS011;40226;50.874;4.394;2022-07-12T07:03:08;24.92;;;12.10;;
23596;SDS011;40226;50.874;4.394;2022-07-12T07:05:34;15.88;;;10.77;;
23596;SDS011;40226;50.874;4.394;2022-07-12T07:08:01;13.95;;;10.70;;
23596;SDS011;40226;50.874;4.394;2022-07-12T07:10:27;14.90;;;10.48;;
23596;SDS011;40226;50.874;4.394;2022-07-12T07:12:53;14.27;;;10.98;;
23596;SDS011;40226;50.874;4.394;2022-07-12T07:15:19;18.92;;;11.43;;
23596;SDS011;40226;50.874;4.394;2022-07-12T07:17:44;12.60;;;11.00;;
23596;SDS011;40226;50.874;4.394;2022-07-12T07:20:10;11.52;;;10.38;;
23596;SDS011;40226;50.874;4.394;2022-07-12T07:22:36;11.73;;;10.38;;
23596;SDS011;40226;50.874;4.394;2022-07-12T07:25:03;11.55;;;10.20;;
23596;SDS011;40226;50.874;4.394;2022-07-12T07:27:29;13.35;;;10.02;;
23596;SDS011;40226;50.874;4.394;2022-07-12T07:29:55;11.40;;;10.20;;
23596;SDS011;40226;50.874;4.394;2022-07-12T07:32:39;14.02;;;9.52;;
23596;SDS011;40226;50.874;4.394;2022-07-12T07:35:05;14.85;;;9.68;;
23596;SDS011;40226;50.874;4.394;2022-07-12T07:37:31;12.43;;;10.40;;
23596;SDS011;40226;50.874;4.394;2022-07-12T07:40:00;10.27;;;8.68;;
23596;SDS011;40226;50.874;4.394;2022-07-12T07:42:26;10.70;;;9.30;;
23596;SDS011;40226;50.874;4.394;2022-07-12T07:44:51;10.15;;;9.15;;
23596;SDS011;40226;50.874;4.394;2022-07-12T07:47:17;11.60;;;9.40;;
23596;SDS011;40226;50.874;4.394;2022-07-12T07:49:43;10.13;;;9.13;;
23596;SDS011;40226;50.874;4.394;2022-07-12T07:52:08;10.15;;;9.15;;
23596;SDS011;40226;50.874;4.394;2022-07-12T07:54:34;12.63;;;10.15;;
23596;SDS011;40226;50.874;4.394;2022-07-12T07:56:59;10.23;;;9.10;;
23596;SDS011;40226;50.874;4.394;2022-07-12T07:59:25;12.10;;;9.65;;
23596;SDS011;40226;50.874;4.394;2022-07-12T08:01:51;11.55;;;8.90;;
23596;SDS011;40226;50.874;4.394;2022-07-12T08:04:20;11.15;;;8.63;;
23596;SDS011;40226;50.874;4.394;2022-07-12T08:06:47;10.05;;;8.23;;
23596;SDS011;40226;50.874;4.394;2022-07-12T08:09:14;11.13;;;9.13;;
23596;SDS011;40226;50.874;4.394;2022-07-12T08:11:40;11.00;;;8.80;;
23596;SDS011;40226;50.874;4.394;2022-07-12T08:14:06;11.13;;;8.50;;
23596;SDS011;40226;50.874;4.394;2022-07-12T08:16:32;9.40;;;8.13;;
23596;SDS011;40226;50.874;4.394;2022-07-12T08:19:00;9.80;;;7.57;;
23596;SDS011;40226;50.874;4.394;2022-07-12T08:21:26;8.73;;;7.68;;
23596;SDS011;40226;50.874;4.394;2022-07-12T08:23:52;9.10;;;7.45;;
23596;SDS011;40226;50.874;4.394;2022-07-12T08:26:18;9.88;;;8.45;;
23596;SDS011;40226;50.874;4.394;2022-07-12T08:28:44;12.23;;;10.20;;
23596;SDS011;40226;50.874;4.394;2022-07-12T08:31:10;11.60;;;8.57;;
23596;SDS011;40226;50.874;4.394;2022-07-12T08:33:38;11.68;;;7.60;;
23596;SDS011;40226;50.874;4.394;2022-07-12T08:36:04;10.38;;;8.00;;
23596;SDS011;40226;50.874;4.394;2022-07-12T08:38:29;9.60;;;7.90;;
23596;SDS011;40226;50.874;4.394;2022-07-12T08:40:57;10.13;;;8.30;;
23596;SDS011;40226;50.874;4.394;2022-07-12T08:43:22;9.73;;;7.82;;
23596;SDS011;40226;50.874;4.394;2022-07-12T08:45:48;10.55;;;8.30;;
23596;SDS011;40226;50.874;4.394;2022-07-12T08:48:14;10.05;;;7.43;;
23596;SDS011;40226;50.874;4.394;2022-07-12T08:50:40;10.50;;;8.00;;
23596;SDS011;40226;50.874;4.394;2022-07-12T08:53:09;11.00;;;7.95;;
23596;SDS011;40226;50.874;4.394;2022-07-12T08:55:35;8.63;;;7.75;;
23596;SDS011;40226;50.874;4.394;2022-07-12T08:58:03;8.40;;;7.50;;
23596;SDS011;40226;50.874;4.394;2022-07-12T09:00:38;8.20;;;7.22;;
23596;SDS011;40226;50.874;4.394;2022-07-12T09:03:04;9.45;;;7.47;;
23596;SDS011;40226;50.874;4.394;2022-07-12T09:05:32;8.32;;;7.20;;
23596;SDS011;40226;50.874;4.394;2022-07-12T09:08:05;7.43;;;6.57;;
23596;SDS011;40226;50.874;4.394;2022-07-12T09:13:14;10.05;;;7.30;;
23596;SDS011;40226;50.874;4.394;2022-07-12T09:15:40;7.50;;;6.70;;
23596;SDS011;40226;50.874;4.394;2022-07-12T09:18:06;7.63;;;6.55;;
23596;SDS011;40226;50.874;4.394;2022-07-12T09:20:39;7.97;;;7.07;;
23596;SDS011;40226;50.874;4.394;2022-07-12T09:23:07;9.70;;;7.15;;
23596;SDS011;40226;50.874;4.394;2022-07-12T09:25:35;5.55;;;4.88;;
23596;SDS011;40226;50.874;4.394;2022-07-12T09:28:05;8.75;;;6.45;;
23596;SDS011;40226;50.874;4.394;2022-07-12T09:30:32;9.15;;;7.10;;
23596;SDS011;40226;50.874;4.394;2022-07-12T09:33:02;8.65;;;6.63;;
23596;SDS011;40226;50.874;4.394;2022-07-12T09:38:33;7.32;;;6.63;;
23596;SDS011;40226;50.874;4.394;2022-07-12T09:40:58;6.80;;;6.05;;
23596;SDS011;40226;50.874;4.394;2022-07-12T09:43:25;9.05;;;5.65;;
23596;SDS011;40226;50.874;4.394;2022-07-12T09:45:52;8.85;;;6.72;;
23596;SDS011;40226;50.874;4.394;2022-07-12T09:48:21;7.60;;;6.78;;
23596;SDS011;40226;50.874;4.394;2022-07-12T09:50:48;11.13;;;8.95;;
23596;SDS011;40226;50.874;4.394;2022-07-12T09:53:22;8.55;;;5.80;;
23596;SDS011;40226;50.874;4.394;2022-07-12T09:58:34;8.80;;;5.80;;
23596;SDS011;40226;50.874;4.394;2022-07-12T10:01:18;7.53;;;6.00;;
23596;SDS011;40226;50.874;4.394;2022-07-12T10:03:45;7.28;;;5.75;;
23596;SDS011;40226;50.874;4.394;2022-07-12T10:06:12;7.43;;;5.88;;
23596;SDS011;40226;50.874;4.394;2022-07-12T10:08:41;10.00;;;6.20;;
23596;SDS011;40226;50.874;4.394;2022-07-12T10:11:06;7.38;;;5.85;;
23596;SDS011;40226;50.874;4.394;2022-07-12T10:13:32;6.07;;;5.20;;
23596;SDS011;40226;50.874;4.394;2022-07-12T10:16:00;6.18;;;5.57;;
23596;SDS011;40226;50.874;4.394;2022-07-12T10:18:27;8.48;;;6.10;;
23596;SDS011;40226;50.874;4.394;2022-07-12T10:20:53;9.32;;;5.57;;
23596;SDS011;40226;50.874;4.394;2022-07-12T10:23:29;8.07;;;5.55;;
23596;SDS011;40226;50.874;4.394;2022-07-12T10:25:58;6.65;;;5.43;;
23596;SDS011;40226;50.874;4.394;2022-07-12T10:28:46;5.35;;;4.70;;
23596;SDS011;40226;50.874;4.394;2022-07-12T10:31:19;6.07;;;4.57;;
23596;SDS011;40226;50.874;4.394;2022-07-12T10:33:48;5.53;;;4.90;;
23596;SDS011;40226;50.874;4.394;2022-07-12T10:36:23;5.75;;;5.15;;
23596;SDS011;40226;50.874;4.394;2022-07-12T10:39:10;7.22;;;5.35;;
23596;SDS011;40226;50.874;4.394;2022-07-12T10:41:36;5.38;;;4.88;;
23596;SDS011;40226;50.874;4.394;2022-07-12T10:44:02;5.97;;;4.88;;
23596;SDS011;40226;50.874;4.394;2022-07-12T10:46:31;5.88;;;5.28;;
23596;SDS011;40226;50.874;4.394;2022-07-12T10:54:37;8.70;;;5.88;;
23596;SDS011;40226;50.874;4.394;2022-07-12T10:57:04;9.18;;;5.40;;
23596;SDS011;40226;50.874;4.394;2022-07-12T10:59:30;5.93;;;5.32;;
23596;SDS011;40226;50.874;4.394;2022-07-12T11:01:58;7.28;;;5.13;;
23596;SDS011;40226;50.874;4.394;2022-07-12T11:04:25;6.10;;;5.10;;
23596;SDS011;40226;50.874;4.394;2022-07-12T11:06:52;5.15;;;4.03;;
23596;SDS011;40226;50.874;4.394;2022-07-12T11:09:22;5.65;;;4.35;;
23596;SDS011;40226;50.874;4.394;2022-07-12T11:11:50;4.28;;;3.85;;
23596;SDS011;40226;50.874;4.394;2022-07-12T11:14:26;5.15;;;3.78;;
23596;SDS011;40226;50.874;4.394;2022-07-12T11:16:57;4.32;;;3.92;;
23596;SDS011;40226;50.874;4.394;2022-07-12T11:19:25;7.28;;;4.47;;
23596;SDS011;40226;50.874;4.394;2022-07-12T11:21:52;5.50;;;4.20;;
23596;SDS011;40226;50.874;4.394;2022-07-12T11:24:22;4.78;;;3.85;;
23596;SDS011;40226;50.874;4.394;2022-07-12T11:26:49;6.78;;;3.97;;
23596;SDS011;40226;50.874;4.394;2022-07-12T11:29:15;5.32;;;4.30;;
23596;SDS011;40226;50.874;4.394;2022-07-12T11:31:41;5.57;;;4.78;;
23596;SDS011;40226;50.874;4.394;2022-07-12T11:34:06;6.07;;;5.47;;
23596;SDS011;40226;50.874;4.394;2022-07-12T11:36:32;5.93;;;5.32;;
23596;SDS011;40226;50.874;4.394;2022-07-12T11:38:58;6.15;;;5.10;;
23596;SDS011;40226;50.874;4.394;2022-07-12T11:41:25;3.42;;;3.10;;
23596;SDS011;40226;50.874;4.394;2022-07-12T11:43:51;3.35;;;3.05;;
23596;SDS011;40226;50.874;4.394;2022-07-12T11:46:17;5.65;;;3.10;;
23596;SDS011;40226;50.874;4.394;2022-07-12T11:48:43;3.95;;;3.50;;
23596;SDS011;40226;50.874;4.394;2022-07-12T11:51:12;4.60;;;4.20;;
23596;SDS011;40226;50.874;4.394;2022-07-12T11:53:38;5.10;;;4.00;;
23596;SDS011;40226;50.874;4.394;2022-07-12T11:56:05;6.15;;;3.80;;
23596;SDS011;40226;50.874;4.394;2022-07-12T11:58:32;4.07;;;3.55;;
23596;SDS011;40226;50.874;4.394;2022-07-12T12:01:02;4.15;;;3.75;;
23596;SDS011;40226;50.874;4.394;2022-07-12T12:03:28;4.35;;;3.95;;
23596;SDS011;40226;50.874;4.394;2022-07-12T12:05:55;4.32;;;3.92;;
23596;SDS011;40226;50.874;4.394;2022-07-12T12:08:21;3.90;;;3.60;;
23596;SDS011;40226;50.874;4.394;2022-07-12T12:10:54;3.85;;;3.55;;
23596;SDS011;40226;50.874;4.394;2022-07-12T12:13:21;7.15;;;3.08;;
23596;SDS011;40226;50.874;4.394;2022-07-12T12:15:49;5.80;;;3.63;;
23596;SDS011;40226;50.874;4.394;2022-07-12T12:18:27;4.07;;;3.42;;
23596;SDS011;40226;50.874;4.394;2022-07-12T12:21:03;4.13;;;3.30;;
23596;SDS011;40226;50.874;4.394;2022-07-12T12:23:34;4.22;;;3.33;;
23596;SDS011;40226;50.874;4.394;2022-07-12T12:26:11;4.68;;;3.80;;
23596;SDS011;40226;50.874;4.394;2022-07-12T12:28:45;4.43;;;3.15;;
23596;SDS011;40226;50.874;4.394;2022-07-12T12:31:15;5.00;;;3.83;;
23596;SDS011;40226;50.874;4.394;2022-07-12T12:33:44;5.47;;;3.38;;
23596;SDS011;40226;50.874;4.394;2022-07-12T12:36:23;6.95;;;4.18;;
23596;SDS011;40226;50.874;4.394;2022-07-12T12:38:55;12.30;;;3.97;;
23596;SDS011;40226;50.874;4.394;2022-07-12T12:41:23;6.38;;;3.88;;
23596;SDS011;40226;50.874;4.394;2022-07-12T12:43:59;4.45;;;3.55;;
23596;SDS011;40226;50.874;4.394;2022-07-12T12:47:12;3.85;;;3.40;;
23596;SDS011;40226;50.874;4.394;2022-07-12T12:49:46;4.95;;;3.20;;
23596;SDS011;40226;50.874;4.394;2022-07-12T12:52:16;5.20;;;4.05;;
23596;SDS011;40226;50.874;4.394;2022-07-12T12:54:42;7.10;;;4.10;;
23596;SDS011;40226;50.874;4.394;2022-07-12T12:57:09;4.95;;;4.03;;
23596;SDS011;40226;50.874;4.394;2022-07-12T12:59:35;5.00;;;4.15;;
23596;SDS011;40226;50.874;4.394;2022-07-12T13:02:02;6.10;;;4.25;;
23596;SDS011;40226;50.874;4.394;2022-07-12T13:04:30;4.40;;;3.90;;
23596;SDS011;40226;50.874;4.394;2022-07-12T13:06:57;5.20;;;4.22;;
23596;SDS011;40226;50.874;4.394;2022-07-12T13:09:23;7.63;;;4.20;;
23596;SDS011;40226;50.874;4.394;2022-07-12T13:11:49;5.72;;;4.03;;
23596;SDS011;40226;50.874;4.394;2022-07-12T13:14:15;7.47;;;4.00;;
23596;SDS011;40226;50.874;4.394;2022-07-12T13:16:40;4.30;;;3.90;;
23596;SDS011;40226;50.874;4.394;2022-07-12T13:19:06;6.75;;;3.67;;
23596;SDS011;40226;50.874;4.394;2022-07-12T13:21:35;6.88;;;3.95;;
23596;SDS011;40226;50.874;4.394;2022-07-12T13:24:00;7.05;;;4.53;;
23596;SDS011;40226;50.874;4.394;2022-07-12T13:26:26;7.03;;;3.80;;
23596;SDS011;40226;50.874;4.394;2022-07-12T13:28:53;6.28;;;4.10;;
23596;SDS011;40226;50.874;4.394;2022-07-12T13:31:19;5.47;;;4.00;;
23596;SDS011;40226;50.874;4.394;2022-07-12T13:33:45;4.72;;;3.60;;
23596;SDS011;40226;50.874;4.394;2022-07-12T13:36:11;4.70;;;4.03;;
23596;SDS011;40226;50.874;4.394;2022-07-12T13:38:37;7.32;;;4.18;;
23596;SDS011;40226;50.874;4.394;2022-07-12T13:41:03;8.20;;;3.83;;
23596;SDS011;40226;50.874;4.394;2022-07-12T13:43:29;7.07;;;4.25;;
23596;SDS011;40226;50.874;4.394;2022-07-12T13:45:55;4.20;;;3.80;;
23596;SDS011;40226;50.874;4.394;2022-07-12T13:48:21;5.38;;;3.30;;
23596;SDS011;40226;50.874;4.394;2022-07-12T13:50:46;5.93;;;3.72;;
23596;SDS011;40226;50.874;4.394;2022-07-12T13:53:12;4.55;;;4.03;;
23596;SDS011;40226;50.874;4.394;2022-07-12T13:55:41;7.80;;;3.50;;
23596;SDS011;40226;50.874;4.394;2022-07-12T13:58:07;6.28;;;3.53;;
23596;SDS011;40226;50.874;4.394;2022-07-12T14:00:33;5.63;;;3.53;;
23596;SDS011;40226;50.874;4.394;2022-07-12T14:02:59;3.55;;;3.22;;
23596;SDS011;40226;50.874;4.394;2022-07-12T14:05:24;5.70;;;3.30;;
23596;SDS011;40226;50.874;4.394;2022-07-12T14:07:50;4.22;;;3.30;;
23596;SDS011;40226;50.874;4.394;2022-07-12T14:10:16;4.82;;;3.13;;
23596;SDS011;40226;50.874;4.394;2022-07-12T14:12:41;5.68;;;2.92;;
23596;SDS011;40226;50.874;4.394;2022-07-12T14:15:07;4.72;;;3.00;;
23596;SDS011;40226;50.874;4.394;2022-07-12T14:17:43;6.53;;;3.40;;
23596;SDS011;40226;50.874;4.394;2022-07-12T14:22:37;8.25;;;3.67;;
23596;SDS011;40226;50.874;4.394;2022-07-12T14:25:03;4.72;;;3.53;;
23596;SDS011;40226;50.874;4.394;2022-07-12T14:27:33;6.35;;;3.40;;
23596;SDS011;40226;50.874;4.394;2022-07-12T14:30:00;3.80;;;2.95;;
23596;SDS011;40226;50.874;4.394;2022-07-12T14:32:25;4.45;;;2.80;;
23596;SDS011;40226;50.874;4.394;2022-07-12T14:34:51;4.97;;;2.70;;
23596;SDS011;40226;50.874;4.394;2022-07-12T14:37:17;5.47;;;3.17;;
23596;SDS011;40226;50.874;4.394;2022-07-12T14:39:42;6.15;;;3.38;;
23596;SDS011;40226;50.874;4.394;2022-07-12T14:42:08;6.10;;;3.20;;
23596;SDS011;40226;50.874;4.394;2022-07-12T14:44:34;5.30;;;2.97;;
23596;SDS011;40226;50.874;4.394;2022-07-12T14:47:00;3.25;;;2.95;;
23596;SDS011;40226;50.874;4.394;2022-07-12T14:49:25;3.78;;;3.45;;
23596;SDS011;40226;50.874;4.394;2022-07-12T14:51:52;4.82;;;3.10;;
23596;SDS011;40226;50.874;4.394;2022-07-12T14:54:18;4.10;;;3.38;;
23596;SDS011;40226;50.874;4.394;2022-07-12T14:56:44;3.90;;;3.15;;